sensor_id;sensor_type;location;lat;lon;timestamp;pressure;altitude;pressure_sealevel;temperature;humidity
36630;BME280;36256;42.154;23.002;2023-08-20T00:01:27;97232.41;;;21.46;76.75
36630;BME280;36256;42.154;23.002;2023-08-20T00:03:55;97240.41;;;21.53;79.65
36630;BME280;36256;42.154;23.002;2023-08-20T00:06:22;97255.59;;;21.72;78.64
36630;BME280;36256;42.154;23.002;2023-08-20T00:08:50;97253.22;;;21.82;76.71
36630;BME280;36256;42.154;23.002;2023-08-20T00:11:16;97255.28;;;21.81;75.14
36630;BME280;36256;42.154;23.002;2023-08-20T00:13:43;97265.16;;;21.80;79.05
36630;BME280;36256;42.154;23.002;2023-08-20T00:16:11;97256.44;;;21.62;78.14
36630;BME280;36256;42.154;23.002;2023-08-20T00:18:38;97251.16;;;21.77;75.61
36630;BME280;36256;42.154;23.002;2023-08-20T00:21:05;97257.56;;;21.88;77.45
36630;BME280;36256;42.154;23.002;2023-08-20T00:23:32;97251.78;;;22.00;77.90
36630;BME280;36256;42.154;23.002;2023-08-20T00:25:59;97256.47;;;22.27;73.96
36630;BME280;36256;42.154;23.002;2023-08-20T00:28:26;97264.22;;;22.32;74.26
36630;BME280;36256;42.154;23.002;2023-08-20T00:30:52;97267.97;;;22.45;74.93
36630;BME280;36256;42.154;23.002;2023-08-20T00:33:19;97261.25;;;22.43;73.79
36630;BME280;36256;42.154;23.002;2023-08-20T00:35:46;97256.03;;;22.47;71.33
36630;BME280;36256;42.154;23.002;2023-08-20T00:38:13;97262.00;;;22.49;72.14
36630;BME280;36256;42.154;23.002;2023-08-20T00:40:39;97259.59;;;22.53;73.22
36630;BME280;36256;42.154;23.002;2023-08-20T00:43:06;97266.78;;;22.65;72.76
36630;BME280;36256;42.154;23.002;2023-08-20T00:45:33;97254.88;;;22.61;72.43
36630;BME280;36256;42.154;23.002;2023-08-20T00:48:00;97260.16;;;22.76;71.84
36630;BME280;36256;42.154;23.002;2023-08-20T00:50:28;97243.22;;;22.78;72.62
36630;BME280;36256;42.154;23.002;2023-08-20T00:52:55;97268.88;;;22.89;72.56
36630;BME280;36256;42.154;23.002;2023-08-20T00:55:22;97250.22;;;22.82;71.73
36630;BME280;36256;42.154;23.002;2023-08-20T00:57:48;97252.47;;;22.89;70.14
36630;BME280;36256;42.154;23.002;2023-08-20T01:00:15;97243.41;;;22.85;69.97
36630;BME280;36256;42.154;23.002;2023-08-20T01:02:43;97248.75;;;22.94;69.76
36630;BME280;36256;42.154;23.002;2023-08-20T01:05:14;97254.84;;;22.85;72.07
36630;BME280;36256;42.154;23.002;2023-08-20T01:13:13;97255.09;;;22.87;71.46
36630;BME280;36256;42.154;23.002;2023-08-20T01:15:40;97244.59;;;22.71;70.14
36630;BME280;36256;42.154;23.002;2023-08-20T01:18:07;97251.03;;;22.77;70.48
36630;BME280;36256;42.154;23.002;2023-08-20T01:20:39;97239.81;;;22.79;70.79
36630;BME280;36256;42.154;23.002;2023-08-20T01:28:57;97242.16;;;22.56;71.91
36630;BME280;36256;42.154;23.002;2023-08-20T01:31:25;97234.38;;;22.51;71.84
36630;BME280;36256;42.154;23.002;2023-08-20T01:33:53;97235.47;;;22.48;71.54
36630;BME280;36256;42.154;23.002;2023-08-20T01:36:23;97237.91;;;22.39;72.74
36630;BME280;36256;42.154;23.002;2023-08-20T01:38:50;97231.34;;;22.44;72.03
36630;BME280;36256;42.154;23.002;2023-08-20T01:41:17;97232.19;;;22.39;73.36
36630;BME280;36256;42.154;23.002;2023-08-20T01:43:44;97225.22;;;22.34;71.99
36630;BME280;36256;42.154;23.002;2023-08-20T01:46:11;97216.44;;;22.27;73.30
36630;BME280;36256;42.154;23.002;2023-08-20T01:48:39;97213.69;;;22.16;72.23
36630;BME280;36256;42.154;23.002;2023-08-20T01:51:06;97220.75;;;22.15;72.63
36630;BME280;36256;42.154;23.002;2023-08-20T01:53:32;97221.75;;;22.17;73.00
36630;BME280;36256;42.154;23.002;2023-08-20T01:55:59;97222.50;;;22.18;73.65
36630;BME280;36256;42.154;23.002;2023-08-20T01:58:26;97223.34;;;22.13;74.11
36630;BME280;36256;42.154;23.002;2023-08-20T02:00:52;97220.50;;;22.13;73.05
36630;BME280;36256;42.154;23.002;2023-08-20T02:03:19;97214.31;;;22.09;73.29
36630;BME280;36256;42.154;23.002;2023-08-20T02:05:46;97217.00;;;21.96;73.99
36630;BME280;36256;42.154;23.002;2023-08-20T02:08:12;97224.84;;;21.90;74.16
36630;BME280;36256;42.154;23.002;2023-08-20T02:10:39;97227.47;;;21.88;73.97
36630;BME280;36256;42.154;23.002;2023-08-20T02:13:06;97230.09;;;21.85;75.09
36630;BME280;36256;42.154;23.002;2023-08-20T02:15:33;97236.59;;;21.80;74.48
36630;BME280;36256;42.154;23.002;2023-08-20T02:18:00;97232.75;;;21.72;75.73
36630;BME280;36256;42.154;23.002;2023-08-20T02:20:27;97229.06;;;21.77;75.90
36630;BME280;36256;42.154;23.002;2023-08-20T02:22:54;97234.22;;;21.90;76.00
36630;BME280;36256;42.154;23.002;2023-08-20T02:25:23;97235.81;;;21.85;75.12
36630;BME280;36256;42.154;23.002;2023-08-20T02:27:50;97235.28;;;21.81;74.25
36630;BME280;36256;42.154;23.002;2023-08-20T02:30:17;97232.69;;;21.83;75.29
36630;BME280;36256;42.154;23.002;2023-08-20T02:32:44;97234.00;;;21.82;74.41
36630;BME280;36256;42.154;23.002;2023-08-20T02:35:11;97238.47;;;21.72;74.57
36630;BME280;36256;42.154;23.002;2023-08-20T02:37:39;97242.84;;;21.79;75.36
36630;BME280;36256;42.154;23.002;2023-08-20T02:40:08;97243.06;;;21.86;75.58
36630;BME280;36256;42.154;23.002;2023-08-20T02:42:36;97246.16;;;21.88;74.97
36630;BME280;36256;42.154;23.002;2023-08-20T02:45:03;97233.84;;;21.99;74.77
36630;BME280;36256;42.154;23.002;2023-08-20T02:47:30;97240.28;;;22.05;74.20
36630;BME280;36256;42.154;23.002;2023-08-20T02:49:57;97242.88;;;22.09;73.63
36630;BME280;36256;42.154;23.002;2023-08-20T02:52:24;97242.88;;;22.09;72.75
36630;BME280;36256;42.154;23.002;2023-08-20T02:54:50;97244.03;;;21.95;73.81
36630;BME280;36256;42.154;23.002;2023-08-20T02:57:17;97255.81;;;21.85;74.44
36630;BME280;36256;42.154;23.002;2023-08-20T02:59:43;97263.53;;;21.91;74.76
36630;BME280;36256;42.154;23.002;2023-08-20T03:02:10;97264.25;;;21.97;74.62
36630;BME280;36256;42.154;23.002;2023-08-20T03:04:37;97265.03;;;21.97;74.27
36630;BME280;36256;42.154;23.002;2023-08-20T03:07:03;97262.72;;;21.96;74.96
36630;BME280;36256;42.154;23.002;2023-08-20T03:09:31;97268.38;;;22.01;73.60
36630;BME280;36256;42.154;23.002;2023-08-20T03:11:58;97278.22;;;22.06;73.28
36630;BME280;36256;42.154;23.002;2023-08-20T03:14:24;97280.28;;;22.11;72.97
36630;BME280;36256;42.154;23.002;2023-08-20T03:16:54;97281.28;;;22.13;73.44
36630;BME280;36256;42.154;23.002;2023-08-20T03:19:21;97288.38;;;22.01;73.55
36630;BME280;36256;42.154;23.002;2023-08-20T03:21:47;97290.50;;;21.95;72.82
36630;BME280;36256;42.154;23.002;2023-08-20T03:24:14;97299.63;;;21.94;74.71
36630;BME280;36256;42.154;23.002;2023-08-20T03:26:41;97306.44;;;21.85;76.23
36630;BME280;36256;42.154;23.002;2023-08-20T03:29:07;97313.69;;;21.80;75.88
36630;BME280;36256;42.154;23.002;2023-08-20T03:31:34;97299.41;;;21.80;75.45
36630;BME280;36256;42.154;23.002;2023-08-20T03:34:01;97303.34;;;21.83;76.20
36630;BME280;36256;42.154;23.002;2023-08-20T03:36:27;97297.13;;;21.73;75.92
36630;BME280;36256;42.154;23.002;2023-08-20T03:38:54;97283.19;;;21.64;76.68
36630;BME280;36256;42.154;23.002;2023-08-20T03:41:21;97297.72;;;21.66;76.99
36630;BME280;36256;42.154;23.002;2023-08-20T03:43:47;97276.13;;;21.71;76.55
36630;BME280;36256;42.154;23.002;2023-08-20T03:46:14;97280.28;;;21.70;76.66
36630;BME280;36256;42.154;23.002;2023-08-20T03:48:41;97291.41;;;21.73;76.67
36630;BME280;36256;42.154;23.002;2023-08-20T03:51:07;97283.38;;;21.72;76.25
36630;BME280;36256;42.154;23.002;2023-08-20T03:53:34;97280.84;;;21.63;76.28
36630;BME280;36256;42.154;23.002;2023-08-20T03:56:01;97283.63;;;21.74;75.65
36630;BME280;36256;42.154;23.002;2023-08-20T03:58:27;97269.69;;;21.59;75.52
36630;BME280;36256;42.154;23.002;2023-08-20T04:00:55;97283.44;;;21.66;75.76
36630;BME280;36256;42.154;23.002;2023-08-20T04:03:22;97279.53;;;21.64;76.22
36630;BME280;36256;42.154;23.002;2023-08-20T04:05:49;97278.81;;;21.52;76.06
36630;BME280;36256;42.154;23.002;2023-08-20T04:08:17;97281.69;;;21.52;76.33
36630;BME280;36256;42.154;23.002;2023-08-20T04:10:43;97288.94;;;21.53;76.89
36630;BME280;36256;42.154;23.002;2023-08-20T04:13:13;97284.78;;;21.54;77.60
36630;BME280;36256;42.154;23.002;2023-08-20T04:15:43;97289.19;;;21.55;76.35
36630;BME280;36256;42.154;23.002;2023-08-20T04:18:09;97283.50;;;21.55;76.45
36630;BME280;36256;42.154;23.002;2023-08-20T04:20:36;97294.31;;;21.68;76.62
36630;BME280;36256;42.154;23.002;2023-08-20T04:23:03;97289.16;;;21.61;75.57
36630;BME280;36256;42.154;23.002;2023-08-20T04:25:30;97289.88;;;21.67;76.44
36630;BME280;36256;42.154;23.002;2023-08-20T04:27:56;97280.69;;;21.44;76.16
36630;BME280;36256;42.154;23.002;2023-08-20T04:30:23;97278.81;;;21.52;78.15
36630;BME280;36256;42.154;23.002;2023-08-20T04:32:50;97276.41;;;21.67;76.46
36630;BME280;36256;42.154;23.002;2023-08-20T04:35:17;97260.66;;;21.55;76.11
36630;BME280;36256;42.154;23.002;2023-08-20T04:37:43;97288.00;;;21.80;77.01
36630;BME280;36256;42.154;23.002;2023-08-20T04:40:10;97275.28;;;21.81;76.16
36630;BME280;36256;42.154;23.002;2023-08-20T04:42:38;97286.16;;;21.88;77.55
36630;BME280;36256;42.154;23.002;2023-08-20T04:45:05;97280.91;;;21.93;75.07
36630;BME280;36256;42.154;23.002;2023-08-20T04:47:31;97288.44;;;21.96;76.09
36630;BME280;36256;42.154;23.002;2023-08-20T04:49:58;97288.38;;;22.01;75.31
36630;BME280;36256;42.154;23.002;2023-08-20T04:52:25;97279.78;;;22.07;76.24
36630;BME280;36256;42.154;23.002;2023-08-20T04:54:52;97281.31;;;22.08;76.18
36630;BME280;36256;42.154;23.002;2023-08-20T04:57:18;97276.09;;;22.12;75.13
36630;BME280;36256;42.154;23.002;2023-08-20T04:59:45;97282.78;;;22.20;76.79
36630;BME280;36256;42.154;23.002;2023-08-20T05:02:12;97277.25;;;22.27;76.36
36630;BME280;36256;42.154;23.002;2023-08-20T05:04:39;97263.75;;;22.28;74.05
36630;BME280;36256;42.154;23.002;2023-08-20T05:07:06;97276.03;;;22.47;73.86
36630;BME280;36256;42.154;23.002;2023-08-20T05:09:33;97262.69;;;22.55;74.70
36630;BME280;36256;42.154;23.002;2023-08-20T05:12:00;97272.44;;;22.71;73.93
36630;BME280;36256;42.154;23.002;2023-08-20T05:14:27;97277.25;;;22.81;71.86
36630;BME280;36256;42.154;23.002;2023-08-20T05:16:54;97283.88;;;22.95;72.58
36630;BME280;36256;42.154;23.002;2023-08-20T05:19:20;97275.84;;;22.93;70.26
36630;BME280;36256;42.154;23.002;2023-08-20T05:21:48;97276.78;;;23.01;72.80
36630;BME280;36256;42.154;23.002;2023-08-20T05:24:14;97278.03;;;23.06;72.27
36630;BME280;36256;42.154;23.002;2023-08-20T05:26:41;97280.81;;;23.11;71.70
36630;BME280;36256;42.154;23.002;2023-08-20T05:29:08;97284.84;;;23.21;72.44
36630;BME280;36256;42.154;23.002;2023-08-20T05:31:34;97272.78;;;23.28;70.10
36630;BME280;36256;42.154;23.002;2023-08-20T05:34:01;97275.78;;;23.42;70.72
36630;BME280;36256;42.154;23.002;2023-08-20T05:36:28;97273.06;;;23.49;69.63
36630;BME280;36256;42.154;23.002;2023-08-20T05:38:55;97253.78;;;23.50;70.32
36630;BME280;36256;42.154;23.002;2023-08-20T05:41:21;97268.19;;;23.63;67.58
36630;BME280;36256;42.154;23.002;2023-08-20T05:43:48;97272.09;;;23.78;66.74
36630;BME280;36256;42.154;23.002;2023-08-20T05:46:15;97270.94;;;23.87;66.71
36630;BME280;36256;42.154;23.002;2023-08-20T05:48:41;97274.78;;;24.08;66.65
36630;BME280;36256;42.154;23.002;2023-08-20T05:51:08;97275.50;;;24.27;67.51
36630;BME280;36256;42.154;23.002;2023-08-20T05:53:35;97269.06;;;24.53;65.86
36630;BME280;36256;42.154;23.002;2023-08-20T05:56:01;97269.25;;;24.86;64.29
36630;BME280;36256;42.154;23.002;2023-08-20T05:58:28;97264.81;;;25.25;62.35
36630;BME280;36256;42.154;23.002;2023-08-20T06:00:55;97263.88;;;25.69;60.35
36630;BME280;36256;42.154;23.002;2023-08-20T06:03:22;97257.09;;;26.13;58.31
36630;BME280;36256;42.154;23.002;2023-08-20T06:05:48;97244.38;;;26.50;56.21
36630;BME280;36256;42.154;23.002;2023-08-20T06:08:15;97244.19;;;26.97;56.95
36630;BME280;36256;42.154;23.002;2023-08-20T06:10:42;97243.50;;;27.47;53.88
36630;BME280;36256;42.154;23.002;2023-08-20T06:13:08;97243.91;;;27.59;53.35
36630;BME280;36256;42.154;23.002;2023-08-20T06:15:35;97242.19;;;28.07;53.81
36630;BME280;36256;42.154;23.002;2023-08-20T06:18:02;97241.25;;;28.34;50.95
36630;BME280;36256;42.154;23.002;2023-08-20T06:20:28;97238.72;;;28.53;50.50
36630;BME280;36256;42.154;23.002;2023-08-20T06:22:55;97234.53;;;28.69;49.87
36630;BME280;36256;42.154;23.002;2023-08-20T06:25:22;97233.56;;;28.82;50.45
36630;BME280;36256;42.154;23.002;2023-08-20T06:27:48;97227.25;;;29.38;49.06
36630;BME280;36256;42.154;23.002;2023-08-20T06:30:15;97228.47;;;29.68;49.05
36630;BME280;36256;42.154;23.002;2023-08-20T06:32:44;97231.06;;;29.96;47.12
36630;BME280;36256;42.154;23.002;2023-08-20T06:35:11;97214.50;;;29.96;48.08
36630;BME280;36256;42.154;23.002;2023-08-20T06:37:40;97228.84;;;30.11;47.50
36630;BME280;36256;42.154;23.002;2023-08-20T06:40:07;97224.28;;;30.33;46.91
36630;BME280;36256;42.154;23.002;2023-08-20T06:42:34;97222.84;;;30.42;46.27
36630;BME280;36256;42.154;23.002;2023-08-20T06:45:05;97222.19;;;30.75;47.13
36630;BME280;36256;42.154;23.002;2023-08-20T06:47:32;97224.19;;;30.90;46.66
36630;BME280;36256;42.154;23.002;2023-08-20T06:49:59;97223.63;;;31.09;45.71
36630;BME280;36256;42.154;23.002;2023-08-20T06:52:26;97223.28;;;31.56;45.43
36630;BME280;36256;42.154;23.002;2023-08-20T06:54:52;97223.31;;;32.00;44.94
36630;BME280;36256;42.154;23.002;2023-08-20T06:57:19;97220.78;;;32.13;44.48
36630;BME280;36256;42.154;23.002;2023-08-20T06:59:46;97214.28;;;32.22;43.01
36630;BME280;36256;42.154;23.002;2023-08-20T07:02:12;97220.31;;;32.43;42.38
36630;BME280;36256;42.154;23.002;2023-08-20T07:04:39;97218.09;;;32.52;43.29
36630;BME280;36256;42.154;23.002;2023-08-20T07:07:06;97219.56;;;32.79;42.29
36630;BME280;36256;42.154;23.002;2023-08-20T07:09:32;97219.44;;;32.96;42.28
36630;BME280;36256;42.154;23.002;2023-08-20T07:11:59;97211.91;;;32.84;42.54
36630;BME280;36256;42.154;23.002;2023-08-20T07:14:26;97220.00;;;32.39;43.18
36630;BME280;36256;42.154;23.002;2023-08-20T07:16:53;97214.94;;;32.40;43.34
36630;BME280;36256;42.154;23.002;2023-08-20T07:19:19;97223.75;;;32.49;43.14
36630;BME280;36256;42.154;23.002;2023-08-20T07:21:46;97221.00;;;32.52;42.41
36630;BME280;36256;42.154;23.002;2023-08-20T07:24:12;97223.34;;;32.63;43.03
36630;BME280;36256;42.154;23.002;2023-08-20T07:26:39;97221.25;;;32.46;42.94
36630;BME280;36256;42.154;23.002;2023-08-20T07:29:06;97211.38;;;32.22;42.76
36630;BME280;36256;42.154;23.002;2023-08-20T07:31:33;97201.31;;;31.97;42.35
36630;BME280;36256;42.154;23.002;2023-08-20T07:34:02;97205.63;;;32.05;43.41
36630;BME280;36256;42.154;23.002;2023-08-20T07:36:31;97204.47;;;31.91;42.73
36630;BME280;36256;42.154;23.002;2023-08-20T07:38:59;97202.81;;;31.98;43.90
36630;BME280;36256;42.154;23.002;2023-08-20T07:41:27;97206.38;;;32.42;44.00
36630;BME280;36256;42.154;23.002;2023-08-20T07:43:54;97207.19;;;32.98;42.72
36630;BME280;36256;42.154;23.002;2023-08-20T07:46:21;97206.38;;;32.69;42.67
36630;BME280;36256;42.154;23.002;2023-08-20T07:48:47;97206.31;;;32.49;42.41
36630;BME280;36256;42.154;23.002;2023-08-20T07:51:14;97202.47;;;32.47;41.84
36630;BME280;36256;42.154;23.002;2023-08-20T07:53:41;97216.97;;;32.83;41.86
36630;BME280;36256;42.154;23.002;2023-08-20T07:56:08;97191.50;;;33.01;40.76
36630;BME280;36256;42.154;23.002;2023-08-20T07:58:35;97197.31;;;33.20;42.26
36630;BME280;36256;42.154;23.002;2023-08-20T08:01:02;97195.94;;;33.40;40.61
36630;BME280;36256;42.154;23.002;2023-08-20T08:03:29;97184.16;;;33.38;40.65
36630;BME280;36256;42.154;23.002;2023-08-20T08:05:56;97192.56;;;33.24;41.03
36630;BME280;36256;42.154;23.002;2023-08-20T08:08:23;97191.50;;;33.20;41.59
36630;BME280;36256;42.154;23.002;2023-08-20T08:10:50;97178.31;;;33.19;40.82
36630;BME280;36256;42.154;23.002;2023-08-20T08:13:20;97176.03;;;33.27;39.94
36630;BME280;36256;42.154;23.002;2023-08-20T08:15:48;97172.81;;;33.23;40.36
36630;BME280;36256;42.154;23.002;2023-08-20T08:18:15;97182.94;;;33.41;40.76
36630;BME280;36256;42.154;23.002;2023-08-20T08:20:42;97182.31;;;33.23;40.07
36630;BME280;36256;42.154;23.002;2023-08-20T08:23:09;97166.69;;;33.19;40.07
36630;BME280;36256;42.154;23.002;2023-08-20T08:25:36;97173.59;;;33.23;40.43
36630;BME280;36256;42.154;23.002;2023-08-20T08:28:04;97155.94;;;32.93;40.41
36630;BME280;36256;42.154;23.002;2023-08-20T08:30:32;97164.25;;;33.06;41.11
36630;BME280;36256;42.154;23.002;2023-08-20T08:32:59;97155.84;;;33.00;41.31
36630;BME280;36256;42.154;23.002;2023-08-20T08:35:26;97159.50;;;33.10;40.92
36630;BME280;36256;42.154;23.002;2023-08-20T08:37:52;97162.28;;;33.18;40.43
36630;BME280;36256;42.154;23.002;2023-08-20T08:40:19;97153.53;;;33.08;39.85
36630;BME280;36256;42.154;23.002;2023-08-20T08:42:47;97165.56;;;32.95;40.12
36630;BME280;36256;42.154;23.002;2023-08-20T08:45:17;97168.75;;;32.80;41.51
36630;BME280;36256;42.154;23.002;2023-08-20T08:47:45;97166.78;;;32.73;41.47
36630;BME280;36256;42.154;23.002;2023-08-20T08:50:12;97174.13;;;32.84;40.92
36630;BME280;36256;42.154;23.002;2023-08-20T08:52:39;97173.38;;;32.93;41.39
36630;BME280;36256;42.154;23.002;2023-08-20T08:55:06;97176.13;;;32.91;41.49
36630;BME280;36256;42.154;23.002;2023-08-20T08:57:36;97182.63;;;33.18;40.35
36630;BME280;36256;42.154;23.002;2023-08-20T09:00:05;97147.88;;;33.30;35.50
36630;BME280;36256;42.154;23.002;2023-08-20T09:02:32;97151.69;;;33.32;38.83
36630;BME280;36256;42.154;23.002;2023-08-20T09:04:58;97171.13;;;33.58;38.22
36630;BME280;36256;42.154;23.002;2023-08-20T09:07:25;97162.69;;;33.72;34.19
36630;BME280;36256;42.154;23.002;2023-08-20T09:09:57;97144.75;;;33.75;31.85
36630;BME280;36256;42.154;23.002;2023-08-20T09:12:25;97149.78;;;34.04;31.19
36630;BME280;36256;42.154;23.002;2023-08-20T09:14:52;97147.91;;;33.98;34.97
36630;BME280;36256;42.154;23.002;2023-08-20T09:17:20;97172.06;;;34.30;37.61
36630;BME280;36256;42.154;23.002;2023-08-20T09:19:47;97151.81;;;34.32;30.74
36630;BME280;36256;42.154;23.002;2023-08-20T09:22:14;97149.88;;;34.15;34.35
36630;BME280;36256;42.154;23.002;2023-08-20T09:24:45;97162.72;;;34.22;31.94
36630;BME280;36256;42.154;23.002;2023-08-20T09:27:12;97155.81;;;34.27;35.47
36630;BME280;36256;42.154;23.002;2023-08-20T09:29:47;97164.03;;;34.40;33.79
36630;BME280;36256;42.154;23.002;2023-08-20T09:32:15;97153.59;;;34.37;31.82
36630;BME280;36256;42.154;23.002;2023-08-20T09:34:42;97160.06;;;34.66;35.80
36630;BME280;36256;42.154;23.002;2023-08-20T09:37:10;97170.72;;;34.83;36.83
36630;BME280;36256;42.154;23.002;2023-08-20T09:39:37;97170.34;;;34.67;29.79
36630;BME280;36256;42.154;23.002;2023-08-20T09:42:08;97152.16;;;34.57;32.62
36630;BME280;36256;42.154;23.002;2023-08-20T09:44:38;97179.16;;;34.57;30.56
36630;BME280;36256;42.154;23.002;2023-08-20T09:47:09;97183.31;;;34.45;30.88
36630;BME280;36256;42.154;23.002;2023-08-20T09:49:41;97180.19;;;34.62;32.95
36630;BME280;36256;42.154;23.002;2023-08-20T09:52:16;97176.66;;;34.63;32.27
36630;BME280;36256;42.154;23.002;2023-08-20T09:59:52;97171.59;;;34.64;30.39
36630;BME280;36256;42.154;23.002;2023-08-20T10:02:19;97186.72;;;34.51;30.17
36630;BME280;36256;42.154;23.002;2023-08-20T10:04:47;97174.44;;;34.43;30.83
36630;BME280;36256;42.154;23.002;2023-08-20T10:07:14;97175.06;;;34.51;31.85
36630;BME280;36256;42.154;23.002;2023-08-20T10:09:40;97181.66;;;34.42;31.33
36630;BME280;36256;42.154;23.002;2023-08-20T10:12:12;97173.19;;;34.46;32.23
36630;BME280;36256;42.154;23.002;2023-08-20T10:14:40;97171.91;;;34.28;32.52
36630;BME280;36256;42.154;23.002;2023-08-20T10:17:08;97156.66;;;34.39;33.11
36630;BME280;36256;42.154;23.002;2023-08-20T10:19:36;97164.13;;;34.51;27.77
36630;BME280;36256;42.154;23.002;2023-08-20T10:22:04;97167.97;;;34.54;31.05
36630;BME280;36256;42.154;23.002;2023-08-20T10:24:48;97168.81;;;34.66;30.82
36630;BME280;36256;42.154;23.002;2023-08-20T10:27:33;97171.75;;;34.87;31.44
36630;BME280;36256;42.154;23.002;2023-08-20T10:30:02;97155.44;;;34.72;26.54
36630;BME280;36256;42.154;23.002;2023-08-20T10:32:48;97168.31;;;35.00;30.41
36630;BME280;36256;42.154;23.002;2023-08-20T10:35:46;97170.78;;;34.94;27.49
36630;BME280;36256;42.154;23.002;2023-08-20T10:38:14;97155.66;;;34.86;25.76
36630;BME280;36256;42.154;23.002;2023-08-20T10:48:53;97138.31;;;34.88;26.04
36630;BME280;36256;42.154;23.002;2023-08-20T10:56:57;97142.38;;;34.52;30.05
36630;BME280;36256;42.154;23.002;2023-08-20T10:59:28;97140.94;;;34.63;31.48
36630;BME280;36256;42.154;23.002;2023-08-20T11:01:59;97153.25;;;34.52;33.00
36630;BME280;36256;42.154;23.002;2023-08-20T11:04:30;97153.75;;;34.39;33.16
36630;BME280;36256;42.154;23.002;2023-08-20T11:07:01;97151.44;;;34.07;29.86
36630;BME280;36256;42.154;23.002;2023-08-20T11:09:31;97132.56;;;33.39;30.67
36630;BME280;36256;42.154;23.002;2023-08-20T11:11:58;97151.25;;;33.07;30.41
36630;BME280;36256;42.154;23.002;2023-08-20T11:14:25;97142.94;;;32.94;31.52
36630;BME280;36256;42.154;23.002;2023-08-20T11:16:52;97141.09;;;32.89;30.94
36630;BME280;36256;42.154;23.002;2023-08-20T11:19:22;97132.41;;;33.08;33.12
36630;BME280;36256;42.154;23.002;2023-08-20T11:21:50;97132.09;;;33.23;30.76
36630;BME280;36256;42.154;23.002;2023-08-20T11:24:17;97132.13;;;33.52;30.42
36630;BME280;36256;42.154;23.002;2023-08-20T11:26:44;97128.88;;;33.38;31.10
36630;BME280;36256;42.154;23.002;2023-08-20T11:29:13;97129.34;;;33.25;30.63
36630;BME280;36256;42.154;23.002;2023-08-20T11:31:40;97124.91;;;33.34;29.68
36630;BME280;36256;42.154;23.002;2023-08-20T11:34:07;97125.06;;;33.26;30.58
36630;BME280;36256;42.154;23.002;2023-08-20T11:36:34;97114.34;;;33.38;30.87
36630;BME280;36256;42.154;23.002;2023-08-20T11:39:02;97112.66;;;33.35;29.91
36630;BME280;36256;42.154;23.002;2023-08-20T11:41:28;97114.03;;;33.53;30.64
36630;BME280;36256;42.154;23.002;2023-08-20T11:43:55;97095.63;;;33.60;29.41
36630;BME280;36256;42.154;23.002;2023-08-20T11:46:23;97105.13;;;33.70;29.67
36630;BME280;36256;42.154;23.002;2023-08-20T11:49:04;97115.78;;;33.87;29.56
36630;BME280;36256;42.154;23.002;2023-08-20T11:51:47;97113.28;;;34.03;30.76
36630;BME280;36256;42.154;23.002;2023-08-20T11:54:16;97106.03;;;34.13;29.16
36630;BME280;36256;42.154;23.002;2023-08-20T11:56:49;97104.78;;;34.26;28.32
36630;BME280;36256;42.154;23.002;2023-08-20T11:59:19;97089.72;;;34.29;29.06
36630;BME280;36256;42.154;23.002;2023-08-20T12:01:54;97094.13;;;34.40;30.28
36630;BME280;36256;42.154;23.002;2023-08-20T12:04:24;97090.25;;;34.47;29.52
36630;BME280;36256;42.154;23.002;2023-08-20T12:07:09;97099.44;;;34.53;28.59
36630;BME280;36256;42.154;23.002;2023-08-20T12:09:36;97093.03;;;34.66;29.44
36630;BME280;36256;42.154;23.002;2023-08-20T12:12:05;97093.03;;;34.66;30.75
36630;BME280;36256;42.154;23.002;2023-08-20T12:14:33;97102.53;;;34.66;27.61
36630;BME280;36256;42.154;23.002;2023-08-20T12:17:00;97081.69;;;34.70;30.23
36630;BME280;36256;42.154;23.002;2023-08-20T12:19:26;97094.94;;;34.83;28.31
36630;BME280;36256;42.154;23.002;2023-08-20T12:21:53;97087.50;;;34.91;28.72
36630;BME280;36256;42.154;23.002;2023-08-20T12:24:20;97092.91;;;34.85;28.53
36630;BME280;36256;42.154;23.002;2023-08-20T12:26:47;97084.72;;;34.72;27.15
36630;BME280;36256;42.154;23.002;2023-08-20T12:29:13;97086.31;;;34.85;27.84
36630;BME280;36256;42.154;23.002;2023-08-20T12:31:41;97082.91;;;34.88;29.87
36630;BME280;36256;42.154;23.002;2023-08-20T12:34:08;97084.00;;;34.83;28.31
36630;BME280;36256;42.154;23.002;2023-08-20T12:36:36;97084.28;;;34.87;28.93
36630;BME280;36256;42.154;23.002;2023-08-20T12:39:03;97082.50;;;34.82;27.70
36630;BME280;36256;42.154;23.002;2023-08-20T12:41:31;97084.78;;;34.84;26.05
36630;BME280;36256;42.154;23.002;2023-08-20T12:43:58;97066.19;;;34.67;29.21
36630;BME280;36256;42.154;23.002;2023-08-20T12:46:25;97069.84;;;34.47;27.80
36630;BME280;36256;42.154;23.002;2023-08-20T12:48:51;97075.81;;;34.49;28.01
36630;BME280;36256;42.154;23.002;2023-08-20T12:51:18;97060.84;;;34.64;27.28
36630;BME280;36256;42.154;23.002;2023-08-20T12:53:45;97054.88;;;34.62;28.72
36630;BME280;36256;42.154;23.002;2023-08-20T12:56:12;97066.97;;;34.68;28.19
36630;BME280;36256;42.154;23.002;2023-08-20T12:58:39;97072.94;;;34.70;29.82
36630;BME280;36256;42.154;23.002;2023-08-20T13:01:05;97059.09;;;34.70;27.65
36630;BME280;36256;42.154;23.002;2023-08-20T13:03:32;97063.63;;;34.62;28.79
36630;BME280;36256;42.154;23.002;2023-08-20T13:05:59;97061.13;;;34.68;30.32
36630;BME280;36256;42.154;23.002;2023-08-20T13:08:26;97061.47;;;34.62;30.92
36630;BME280;36256;42.154;23.002;2023-08-20T13:10:55;97046.25;;;34.64;27.83
36630;BME280;36256;42.154;23.002;2023-08-20T13:13:23;97054.03;;;34.71;26.12
36630;BME280;36256;42.154;23.002;2023-08-20T13:15:51;97052.81;;;34.74;30.91
36630;BME280;36256;42.154;23.002;2023-08-20T13:18:19;97054.59;;;34.79;27.34
36630;BME280;36256;42.154;23.002;2023-08-20T13:20:46;97049.16;;;34.85;31.07
36630;BME280;36256;42.154;23.002;2023-08-20T13:23:12;97039.19;;;34.88;28.78